createdAt,value
2023-01-01T00:03:07.429Z,11.80
2023-01-01T00:06:30.346Z,11.60
2023-01-01T00:09:51.918Z,11.60
2023-01-01T00:13:13.680Z,11.70
2023-01-01T00:16:35.356Z,11.90
2023-01-01T00:19:56.972Z,12.20
2023-01-01T00:23:19.889Z,12.30
2023-01-01T00:26:41.443Z,12.50
2023-01-01T00:30:03.363Z,12.60
2023-01-01T00:33:24.929Z,12.50
2023-01-01T00:36:46.554Z,12.50
2023-01-01T00:40:10.315Z,12.40
2023-01-01T00:43:31.929Z,12.40
2023-01-01T00:46:53.565Z,12.30
2023-01-01T00:50:15.239Z,12.30
2023-01-01T00:53:37.177Z,12.30
2023-01-01T00:57:00.085Z,12.40
2023-01-01T01:00:21.794Z,12.50
2023-01-01T01:03:43.723Z,12.40
2023-01-01T01:07:05.565Z,12.40
2023-01-01T01:10:27.191Z,12.30
2023-01-01T01:13:51.249Z,12.30
2023-01-01T01:17:12.827Z,12.40
2023-01-01T01:20:34.415Z,12.40
2023-01-01T01:23:57.130Z,12.30
2023-01-01T01:27:18.680Z,12.30
2023-01-01T01:30:41.772Z,12.40
2023-01-01T01:34:03.359Z,12.40
2023-01-01T01:37:24.888Z,12.40
2023-01-01T01:40:46.457Z,12.40
2023-01-01T01:44:22.893Z,12.50
2023-01-01T01:47:48.851Z,12.50
2023-01-01T01:51:12.214Z,12.40
2023-01-01T01:54:33.755Z,12.40
2023-01-01T01:57:55.513Z,12.50
2023-01-01T02:01:17.243Z,12.50
2023-01-01T02:04:40.315Z,12.50
2023-01-01T02:08:02.955Z,12.50
2023-01-01T02:11:24.594Z,12.40
2023-01-01T02:14:46.145Z,12.50
2023-01-01T02:18:10.381Z,12.60
2023-01-01T02:21:35.572Z,12.60
2023-01-01T02:25:04.565Z,12.50
2023-01-01T02:28:37.723Z,12.50
2023-01-01T02:32:01.431Z,12.60
2023-01-01T02:35:24.599Z,12.60
2023-01-01T02:38:48.101Z,12.70
2023-01-01T02:42:09.662Z,12.70
2023-01-01T02:45:32.998Z,12.70
2023-01-01T02:48:54.539Z,12.70
2023-01-01T02:52:21.773Z,12.60
2023-01-01T02:55:47.851Z,12.50
2023-01-01T02:59:15.810Z,12.30
2023-01-01T03:02:45.295Z,12.20
2023-01-01T03:06:15.513Z,12.20
2023-01-01T03:09:39.634Z,12.20
2023-01-01T03:13:03.446Z,12.30
2023-01-01T03:16:27.170Z,12.30
2023-01-01T03:19:50.815Z,12.20
2023-01-01T03:23:15.731Z,12.20
2023-01-01T03:26:38.909Z,12.20
2023-01-01T03:30:01.772Z,12.30
2023-01-01T03:33:25.132Z,12.20
2023-01-01T03:36:49.075Z,12.20
2023-01-01T03:40:11.372Z,12.10
2023-01-01T03:43:39.139Z,12.10
2023-01-01T03:47:01.119Z,12.20
2023-01-01T03:50:27.035Z,12.40
2023-01-01T03:53:51.372Z,12.60
2023-01-01T03:57:15.985Z,12.60
2023-01-01T04:00:40.252Z,12.50
2023-01-01T04:04:03.906Z,12.40
2023-01-01T04:07:25.776Z,12.30
2023-01-01T04:10:50.503Z,12.30
2023-01-01T04:14:12.113Z,12.40
2023-01-01T04:17:33.663Z,12.30
2023-01-01T04:20:55.217Z,12.30
2023-01-01T04:24:16.940Z,12.30
2023-01-01T04:27:40.092Z,12.20
2023-01-01T04:34:22.129Z,12.40
2023-01-01T04:37:44.536Z,12.40
2023-01-01T04:41:06.101Z,12.30
2023-01-01T04:44:28.973Z,12.30
2023-01-01T04:47:50.529Z,12.20
2023-01-01T04:51:12.719Z,12.20
2023-01-01T04:54:34.251Z,12.10
2023-01-01T04:57:55.798Z,12.00
2023-01-01T05:01:20.199Z,12.00
2023-01-01T05:04:41.955Z,11.90
2023-01-01T05:08:03.512Z,11.90
2023-01-01T05:11:26.093Z,11.80
2023-01-01T05:14:47.637Z,11.70
2023-01-01T05:18:10.507Z,11.70
2023-01-01T05:21:33.127Z,11.60
2023-01-01T05:24:54.839Z,11.50
2023-01-01T05:28:16.394Z,11.40
2023-01-01T05:31:37.981Z,11.30
2023-01-01T05:35:00.938Z,11.30
2023-01-01T05:38:22.505Z,11.20
2023-01-01T05:41:44.059Z,11.10
2023-01-01T05:45:06.187Z,11.10
2023-01-01T05:48:27.748Z,11.10
2023-01-01T05:51:50.622Z,11.00
2023-01-01T05:55:12.177Z,11.10
2023-01-01T05:58:34.658Z,11.10
2023-01-01T06:01:56.278Z,11.00
2023-01-01T06:05:17.891Z,10.90
2023-01-01T06:08:41.088Z,10.80
2023-01-01T06:12:02.752Z,10.80
2023-01-01T06:15:24.333Z,10.80
2023-01-01T06:18:45.903Z,10.80
2023-01-01T06:22:07.433Z,10.90
2023-01-01T06:25:30.336Z,10.90
2023-01-01T06:28:52.056Z,10.90
2023-01-01T06:32:13.791Z,10.80
2023-01-01T06:35:35.576Z,10.70
2023-01-01T06:38:57.245Z,10.60
2023-01-01T06:42:20.188Z,10.60
2023-01-01T06:45:41.755Z,10.60
2023-01-01T06:49:04.541Z,10.40
2023-01-01T06:52:26.087Z,10.30
2023-01-01T06:55:53.250Z,10.30
2023-01-01T06:59:19.764Z,10.40
2023-01-01T07:02:41.493Z,10.60
2023-01-01T07:06:03.362Z,10.60
2023-01-01T07:09:24.914Z,10.70
2023-01-01T07:12:46.441Z,10.90
2023-01-01T07:16:13.122Z,10.90
2023-01-01T07:19:35.400Z,11.00
2023-01-01T07:22:56.942Z,11.10
2023-01-01T07:26:18.500Z,11.10
2023-01-01T07:29:40.275Z,11.00
2023-01-01T07:33:03.240Z,10.90
2023-01-01T07:36:24.788Z,10.80
2023-01-01T07:39:46.352Z,10.70
2023-01-01T07:43:08.352Z,10.60
2023-01-01T07:46:30.020Z,10.60
2023-01-01T07:49:53.290Z,10.60
2023-01-01T07:53:14.817Z,10.50
2023-01-01T07:56:36.475Z,10.40
2023-01-01T07:59:58.220Z,10.40
2023-01-01T08:03:20.216Z,10.40
2023-01-01T08:06:43.190Z,10.40
2023-01-01T08:10:05.473Z,10.40
2023-01-01T08:13:27.019Z,10.40
2023-01-01T08:16:48.561Z,10.40
2023-01-01T08:20:10.261Z,10.40
2023-01-01T08:23:33.166Z,10.50
2023-01-01T08:26:54.786Z,10.50
2023-01-01T08:30:16.868Z,10.60
2023-01-01T08:33:38.400Z,10.60
2023-01-01T08:36:59.957Z,10.60
2023-01-01T08:40:23.041Z,10.60
2023-01-01T08:43:44.584Z,10.60
2023-01-01T08:47:06.143Z,10.70
2023-01-01T08:50:27.807Z,10.80
2023-01-01T08:53:51.566Z,10.90
2023-01-01T08:57:14.929Z,11.00
2023-01-01T09:00:36.561Z,11.10
2023-01-01T09:03:58.108Z,11.00
2023-01-01T09:07:19.668Z,11.00
2023-01-01T09:10:41.553Z,10.90
2023-01-01T09:14:04.429Z,10.90
2023-01-01T09:17:25.972Z,10.90
2023-01-01T09:20:47.690Z,10.90
2023-01-01T09:24:09.285Z,10.90
2023-01-01T09:27:30.880Z,10.90
2023-01-01T09:30:53.787Z,11.00
2023-01-01T09:34:15.601Z,11.20
2023-01-01T09:37:37.160Z,11.30
2023-01-01T09:41:00.526Z,11.40
2023-01-01T09:44:29.630Z,11.60
2023-01-01T09:47:55.015Z,11.70
2023-01-01T09:51:19.606Z,11.80
2023-01-01T09:54:44.600Z,11.90
2023-01-01T09:58:08.800Z,11.90
2023-01-01T10:01:35.751Z,12.00
2023-01-01T10:05:02.193Z,11.90
2023-01-01T10:08:29.667Z,12.10
2023-01-01T10:11:55.682Z,12.10
2023-01-01T10:15:20.262Z,12.30
2023-01-01T10:18:42.446Z,12.40
2023-01-01T10:22:06.918Z,12.50
2023-01-01T10:25:30.695Z,12.70
2023-01-01T10:28:56.000Z,13.00
2023-01-01T10:32:19.515Z,13.20
2023-01-01T10:35:42.826Z,13.30
2023-01-01T10:39:05.777Z,13.40
2023-01-01T10:42:27.328Z,13.50
2023-01-01T10:45:50.606Z,13.60
2023-01-01T10:49:15.076Z,13.70
2023-01-01T10:52:37.183Z,13.70
2023-01-01T10:56:01.772Z,13.80
2023-01-01T10:59:33.596Z,13.90
2023-01-01T11:03:18.803Z,13.90
2023-01-01T11:06:41.466Z,14.10
2023-01-01T11:10:05.185Z,14.10
2023-01-01T11:13:28.947Z,14.30
2023-01-01T11:16:51.084Z,14.30
2023-01-01T11:20:17.096Z,14.40
2023-01-01T11:23:39.290Z,14.50
2023-01-01T11:27:12.126Z,14.50
2023-01-01T11:30:35.087Z,14.60
2023-01-01T11:33:57.067Z,14.60
2023-01-01T11:37:23.616Z,14.60
2023-01-01T11:40:45.800Z,14.70
2023-01-01T11:44:08.122Z,14.70
2023-01-01T11:47:33.540Z,14.80
2023-01-01T11:50:55.966Z,14.90
2023-01-01T11:54:23.075Z,14.90
2023-01-01T11:57:46.597Z,15.00
2023-01-01T12:01:11.624Z,14.90
2023-01-01T12:04:38.059Z,15.00
2023-01-01T12:08:01.357Z,15.00
2023-01-01T12:11:25.291Z,15.20
2023-01-01T12:14:50.614Z,15.20
2023-01-01T12:18:15.068Z,15.20
2023-01-01T12:21:39.444Z,15.20
2023-01-01T12:25:01.988Z,15.20
2023-01-01T12:28:29.018Z,15.20
2023-01-01T12:31:56.555Z,15.20
2023-01-01T12:35:21.727Z,15.20
2023-01-01T12:38:56.603Z,15.30
2023-01-01T12:42:22.458Z,15.30
2023-01-01T12:45:52.668Z,15.40
2023-01-01T12:49:27.527Z,15.30
2023-01-01T12:52:55.025Z,15.20
2023-01-01T12:56:23.490Z,15.30
2023-01-01T12:59:48.286Z,15.30
2023-01-01T13:03:14.698Z,15.30
2023-01-01T13:06:38.231Z,15.40
2023-01-01T13:10:03.191Z,15.30
2023-01-01T13:13:26.274Z,15.30
2023-01-01T13:16:50.355Z,15.40
2023-01-01T13:20:15.911Z,15.50
2023-01-01T13:23:44.260Z,15.50
2023-01-01T13:27:10.853Z,15.60
2023-01-01T13:30:50.022Z,15.60
2023-01-01T13:34:30.330Z,15.60
2023-01-01T13:37:52.029Z,15.50
2023-01-01T13:41:28.799Z,15.40
2023-01-01T13:44:50.372Z,15.40
2023-01-01T13:48:22.038Z,15.40
2023-01-01T13:52:06.407Z,15.30
2023-01-01T13:55:54.486Z,15.20
2023-01-01T13:59:30.910Z,15.20
2023-01-01T14:02:53.987Z,15.20
2023-01-01T14:06:23.163Z,15.10
2023-01-01T14:09:44.736Z,14.90
2023-01-01T14:13:14.650Z,14.80
2023-01-01T14:16:36.246Z,14.70
2023-01-01T14:19:57.917Z,14.60
2023-01-01T14:23:24.616Z,14.50
2023-01-01T14:26:46.316Z,14.50
2023-01-01T14:30:14.922Z,14.50
2023-01-01T14:33:36.475Z,14.40
2023-01-01T14:36:58.811Z,14.40
2023-01-01T14:40:23.876Z,14.40
2023-01-01T14:43:46.269Z,14.30
2023-01-01T14:47:15.543Z,14.20
2023-01-01T14:50:37.244Z,14.10
2023-01-01T14:53:59.829Z,14.00
2023-01-01T14:57:24.219Z,13.90
2023-01-01T15:00:46.038Z,13.80
2023-01-01T15:04:17.792Z,13.70
2023-01-01T15:07:39.362Z,13.60
2023-01-01T15:11:02.938Z,13.40
2023-01-01T15:14:32.922Z,13.40
2023-01-01T15:17:54.461Z,13.30
2023-01-01T15:21:18.103Z,13.20
2023-01-01T15:24:39.848Z,13.00
2023-01-01T15:28:01.873Z,12.90
2023-01-01T15:31:33.443Z,12.80
2023-01-01T15:34:55.765Z,12.70
2023-01-01T15:38:19.886Z,12.50
2023-01-01T15:41:43.543Z,12.50
2023-01-01T15:45:13.550Z,12.40
2023-01-01T15:48:37.231Z,12.30
2023-01-01T15:52:00.597Z,12.30
2023-01-01T15:55:22.247Z,12.20
2023-01-01T15:58:47.760Z,12.20
2023-01-01T16:02:13.403Z,12.20
2023-01-01T16:05:36.555Z,12.10
2023-01-01T16:08:58.093Z,12.00
2023-01-01T16:12:20.172Z,12.00
2023-01-01T16:15:49.796Z,11.90
2023-01-01T16:19:14.215Z,11.80
2023-01-01T16:22:37.189Z,11.60
2023-01-01T16:25:58.990Z,11.50
2023-01-01T16:29:20.543Z,11.50
2023-01-01T16:32:42.094Z,11.40
2023-01-01T16:36:04.168Z,11.40
2023-01-01T16:39:27.077Z,11.30
2023-01-01T16:42:48.725Z,11.30
2023-01-01T16:46:13.502Z,11.40
2023-01-01T16:49:35.353Z,11.40
2023-01-01T16:52:56.907Z,11.40
2023-01-01T16:56:19.786Z,11.40
2023-01-01T16:59:41.399Z,11.40
2023-01-01T17:03:03.076Z,11.40
2023-01-01T17:06:24.658Z,11.40
2023-01-01T17:09:46.216Z,11.30
2023-01-01T17:13:09.080Z,11.30
2023-01-01T17:16:38.309Z,11.30
2023-01-01T17:20:00.594Z,11.20
2023-01-01T17:23:22.216Z,11.20
2023-01-01T17:26:43.984Z,11.20
2023-01-01T17:30:07.746Z,11.20
2023-01-01T17:33:29.335Z,11.30
2023-01-01T17:36:50.928Z,11.30
2023-01-01T17:40:12.690Z,11.20
2023-01-01T17:43:34.831Z,11.10
2023-01-01T17:46:57.736Z,11.00
2023-01-01T17:50:19.285Z,10.90
2023-01-01T17:53:41.139Z,10.80
2023-01-01T17:57:02.728Z,10.90
2023-01-01T18:00:24.290Z,10.80
2023-01-01T18:03:47.597Z,10.80
2023-01-01T18:07:09.443Z,10.70
2023-01-01T18:10:31.019Z,10.60
2023-01-01T18:13:52.572Z,10.50
2023-01-01T18:17:14.144Z,10.40
2023-01-01T18:20:37.019Z,10.30
2023-01-01T18:23:58.840Z,10.20
2023-01-01T18:27:20.408Z,10.20
2023-01-01T18:30:41.970Z,10.20
2023-01-01T18:34:03.599Z,10.10
2023-01-01T18:37:26.468Z,9.90
2023-01-01T18:40:50.860Z,9.80
2023-01-01T18:44:17.228Z,9.70
2023-01-01T18:47:38.793Z,9.70
2023-01-01T18:51:00.437Z,9.70
2023-01-01T18:54:24.736Z,9.60
2023-01-01T18:57:47.795Z,9.60
2023-01-01T19:01:13.179Z,9.50
2023-01-01T19:04:34.866Z,9.50
2023-01-01T19:08:02.166Z,9.40
2023-01-01T19:11:25.087Z,9.60
2023-01-01T19:14:48.361Z,9.60
2023-01-01T19:18:14.142Z,9.60
2023-01-01T19:21:35.688Z,9.60
2023-01-01T19:24:57.292Z,9.80
2023-01-01T19:28:29.603Z,9.80
2023-01-01T19:31:51.997Z,9.80
2023-01-01T19:35:16.574Z,9.80
2023-01-01T19:38:38.326Z,9.70
2023-01-01T19:41:59.896Z,9.80
2023-01-01T19:45:22.802Z,9.90
2023-01-01T19:48:44.435Z,9.90
2023-01-01T19:52:06.127Z,9.90
2023-01-01T19:55:27.696Z,9.90
2023-01-01T19:58:49.540Z,9.80
2023-01-01T20:02:44.888Z,9.80
2023-01-01T20:05:54.065Z,9.70
2023-01-01T20:09:16.961Z,9.50
2023-01-01T20:12:38.557Z,9.40
2023-01-01T20:16:00.176Z,9.30
2023-01-01T20:19:23.240Z,9.30
2023-01-01T20:22:44.812Z,9.20
2023-01-01T20:26:06.418Z,9.20
2023-01-01T20:29:28.021Z,9.10
2023-01-01T20:32:49.654Z,9.20
2023-01-01T20:36:12.559Z,9.40
2023-01-01T20:39:34.417Z,9.60
2023-01-01T20:42:55.998Z,9.60
2023-01-01T20:46:17.746Z,9.60
2023-01-01T20:49:39.473Z,9.60
2023-01-01T20:53:02.427Z,9.60
2023-01-01T20:56:25.987Z,9.70
2023-01-01T20:59:48.209Z,9.90
2023-01-01T21:03:09.905Z,10.30
2023-01-01T21:06:32.207Z,10.40
2023-01-01T21:09:55.183Z,10.50
2023-01-01T21:13:16.964Z,10.50
2023-01-01T21:16:41.285Z,10.40
2023-01-01T21:20:03.710Z,10.40
2023-01-01T21:23:26.113Z,10.40
2023-01-01T21:26:49.784Z,10.30
2023-01-01T21:30:12.232Z,10.30
2023-01-01T21:33:34.877Z,10.20
2023-01-01T21:37:00.177Z,10.20
2023-01-01T21:40:30.970Z,10.20
2023-01-01T21:43:55.007Z,10.20
2023-01-01T21:47:22.045Z,10.20
2023-01-01T21:50:44.416Z,10.30
2023-01-01T21:54:17.750Z,10.30
2023-01-01T21:57:39.488Z,10.40
2023-01-01T22:01:05.830Z,10.40
2023-01-01T22:04:29.188Z,10.40
2023-01-01T22:07:58.626Z,10.30
2023-01-01T22:11:26.108Z,10.30
2023-01-01T22:14:49.007Z,10.20
2023-01-01T22:18:25.471Z,10.10
2023-01-01T22:21:47.930Z,10.00
2023-01-01T22:25:18.038Z,10.00
2023-01-01T22:28:41.999Z,10.10
2023-01-01T22:32:12.763Z,10.10
2023-01-01T22:35:35.813Z,10.00
2023-01-01T22:38:59.468Z,10.00
2023-01-01T22:42:21.734Z,9.90
2023-01-01T22:45:44.188Z,9.80
2023-01-01T22:49:10.842Z,9.60
2023-01-01T22:52:33.785Z,9.50
2023-01-01T22:55:55.333Z,9.40
2023-01-01T22:59:16.914Z,9.30
2023-01-01T23:02:38.643Z,9.30
2023-01-01T23:06:00.585Z,9.10
2023-01-01T23:09:24.193Z,9.20
2023-01-01T23:12:45.790Z,9.20
2023-01-01T23:16:08.721Z,9.20
2023-01-01T23:19:30.509Z,9.10
2023-01-01T23:22:53.554Z,9.20
2023-01-01T23:26:16.843Z,9.20
2023-01-01T23:29:38.406Z,9.30
2023-01-01T23:33:00.007Z,9.30
2023-01-01T23:36:24.191Z,9.30
2023-01-01T23:39:45.788Z,9.30
2023-01-01T23:43:08.693Z,9.30
2023-01-01T23:46:31.855Z,9.20
2023-01-01T23:49:53.489Z,9.40
2023-01-01T23:53:15.279Z,9.60
2023-01-01T23:56:36.809Z,9.90
2023-01-01T23:59:59.697Z,10.10
